sensor_id;sensor_type;location;lat;lon;timestamp;temperature;humidity
12853;DHT22;6495;51.808;7.478;2022-12-28T00:00:39;5.90;99.90
12853;DHT22;6495;51.808;7.478;2022-12-28T00:03:28;5.90;99.90
12853;DHT22;6495;51.808;7.478;2022-12-28T00:06:15;5.90;99.90
12853;DHT22;6495;51.808;7.478;2022-12-28T00:09:03;5.90;99.90
12853;DHT22;6495;51.808;7.478;2022-12-28T00:11:50;5.90;99.90
12853;DHT22;6495;51.808;7.478;2022-12-28T00:14:37;5.90;99.90
12853;DHT22;6495;51.808;7.478;2022-12-28T00:17:24;5.90;99.90
12853;DHT22;6495;51.808;7.478;2022-12-28T00:20:12;5.90;99.90
12853;DHT22;6495;51.808;7.478;2022-12-28T00:23:03;5.90;99.90
12853;DHT22;6495;51.808;7.478;2022-12-28T00:25:51;5.90;99.90
12853;DHT22;6495;51.808;7.478;2022-12-28T00:28:38;5.90;99.90
12853;DHT22;6495;51.808;7.478;2022-12-28T00:31:26;5.90;99.90
12853;DHT22;6495;51.808;7.478;2022-12-28T00:34:14;5.90;99.90
12853;DHT22;6495;51.808;7.478;2022-12-28T00:37:02;5.90;99.90
12853;DHT22;6495;51.808;7.478;2022-12-28T00:39:56;5.90;99.90
12853;DHT22;6495;51.808;7.478;2022-12-28T00:42:43;5.90;99.90
12853;DHT22;6495;51.808;7.478;2022-12-28T00:45:30;5.90;99.90
12853;DHT22;6495;51.808;7.478;2022-12-28T00:48:17;5.90;99.90
12853;DHT22;6495;51.808;7.478;2022-12-28T00:51:06;6.00;99.90
12853;DHT22;6495;51.808;7.478;2022-12-28T00:53:56;6.00;99.90
12853;DHT22;6495;51.808;7.478;2022-12-28T00:56:43;6.00;99.90
12853;DHT22;6495;51.808;7.478;2022-12-28T00:59:30;6.00;99.90
12853;DHT22;6495;51.808;7.478;2022-12-28T01:02:17;6.10;99.90
12853;DHT22;6495;51.808;7.478;2022-12-28T01:05:05;6.10;99.90
12853;DHT22;6495;51.808;7.478;2022-12-28T01:07:53;6.10;99.90
12853;DHT22;6495;51.808;7.478;2022-12-28T01:10:42;6.10;99.90
12853;DHT22;6495;51.808;7.478;2022-12-28T01:13:29;6.10;99.90
12853;DHT22;6495;51.808;7.478;2022-12-28T01:16:19;6.10;99.90
12853;DHT22;6495;51.808;7.478;2022-12-28T01:19:07;6.10;99.90
12853;DHT22;6495;51.808;7.478;2022-12-28T01:22:04;6.10;99.90
12853;DHT22;6495;51.808;7.478;2022-12-28T01:24:51;6.20;99.90
12853;DHT22;6495;51.808;7.478;2022-12-28T01:27:39;6.20;99.90
12853;DHT22;6495;51.808;7.478;2022-12-28T01:30:26;6.20;99.90
12853;DHT22;6495;51.808;7.478;2022-12-28T01:33:14;6.20;99.90
12853;DHT22;6495;51.808;7.478;2022-12-28T01:36:05;6.20;99.90
12853;DHT22;6495;51.808;7.478;2022-12-28T01:38:54;6.20;99.90
12853;DHT22;6495;51.808;7.478;2022-12-28T01:41:42;6.20;99.90
12853;DHT22;6495;51.808;7.478;2022-12-28T01:44:45;6.20;99.90
12853;DHT22;6495;51.808;7.478;2022-12-28T01:47:34;6.20;99.90
12853;DHT22;6495;51.808;7.478;2022-12-28T01:50:25;6.20;99.90
12853;DHT22;6495;51.808;7.478;2022-12-28T01:53:15;6.20;99.90
12853;DHT22;6495;51.808;7.478;2022-12-28T01:56:06;6.20;99.90
12853;DHT22;6495;51.808;7.478;2022-12-28T01:58:54;6.20;99.90
12853;DHT22;6495;51.808;7.478;2022-12-28T02:01:43;6.20;99.90
12853;DHT22;6495;51.808;7.478;2022-12-28T02:04:31;6.20;99.90
12853;DHT22;6495;51.808;7.478;2022-12-28T02:07:25;6.20;99.90
12853;DHT22;6495;51.808;7.478;2022-12-28T02:10:21;6.20;99.90
12853;DHT22;6495;51.808;7.478;2022-12-28T02:13:30;6.20;99.90
12853;DHT22;6495;51.808;7.478;2022-12-28T02:16:17;6.20;99.90
12853;DHT22;6495;51.808;7.478;2022-12-28T02:19:08;6.20;99.90
12853;DHT22;6495;51.808;7.478;2022-12-28T02:22:12;6.20;99.90
12853;DHT22;6495;51.808;7.478;2022-12-28T02:25:40;6.20;99.90
12853;DHT22;6495;51.808;7.478;2022-12-28T02:32:24;6.20;99.90
12853;DHT22;6495;51.808;7.478;2022-12-28T02:35:25;6.20;99.90
12853;DHT22;6495;51.808;7.478;2022-12-28T02:38:24;6.20;99.90
12853;DHT22;6495;51.808;7.478;2022-12-28T02:41:19;6.20;99.90
12853;DHT22;6495;51.808;7.478;2022-12-28T02:44:08;6.20;99.90
12853;DHT22;6495;51.808;7.478;2022-12-28T02:46:57;6.20;99.90
12853;DHT22;6495;51.808;7.478;2022-12-28T02:50:04;6.20;99.90
12853;DHT22;6495;51.808;7.478;2022-12-28T02:53:26;6.20;99.90
12853;DHT22;6495;51.808;7.478;2022-12-28T02:57:25;6.20;99.90
12853;DHT22;6495;51.808;7.478;2022-12-28T03:10:36;6.20;99.90
12853;DHT22;6495;51.808;7.478;2022-12-28T03:13:32;6.20;99.90
12853;DHT22;6495;51.808;7.478;2022-12-28T03:16:40;6.20;99.90
12853;DHT22;6495;51.808;7.478;2022-12-28T03:19:51;6.30;99.90
12853;DHT22;6495;51.808;7.478;2022-12-28T03:23:01;6.30;99.90
12853;DHT22;6495;51.808;7.478;2022-12-28T03:26:12;6.30;99.90
12853;DHT22;6495;51.808;7.478;2022-12-28T03:29:19;6.30;99.90
12853;DHT22;6495;51.808;7.478;2022-12-28T03:32:26;6.30;99.90
12853;DHT22;6495;51.808;7.478;2022-12-28T03:35:15;6.40;99.90
12853;DHT22;6495;51.808;7.478;2022-12-28T03:42:33;6.40;99.90
12853;DHT22;6495;51.808;7.478;2022-12-28T03:45:46;6.40;99.90
12853;DHT22;6495;51.808;7.478;2022-12-28T03:48:40;6.40;99.90
12853;DHT22;6495;51.808;7.478;2022-12-28T03:51:31;6.50;99.90
12853;DHT22;6495;51.808;7.478;2022-12-28T03:54:20;6.50;99.90
12853;DHT22;6495;51.808;7.478;2022-12-28T03:57:07;6.50;99.90
12853;DHT22;6495;51.808;7.478;2022-12-28T03:59:54;6.50;99.90
12853;DHT22;6495;51.808;7.478;2022-12-28T04:02:41;6.50;99.90
12853;DHT22;6495;51.808;7.478;2022-12-28T04:05:29;6.60;99.90
12853;DHT22;6495;51.808;7.478;2022-12-28T04:08:17;6.60;99.90
12853;DHT22;6495;51.808;7.478;2022-12-28T04:11:04;6.60;99.90
12853;DHT22;6495;51.808;7.478;2022-12-28T04:13:51;6.60;99.90
12853;DHT22;6495;51.808;7.478;2022-12-28T04:16:38;6.60;99.90
12853;DHT22;6495;51.808;7.478;2022-12-28T04:19:24;6.60;99.90
12853;DHT22;6495;51.808;7.478;2022-12-28T04:22:11;6.60;99.90
12853;DHT22;6495;51.808;7.478;2022-12-28T04:25:00;6.60;99.90
12853;DHT22;6495;51.808;7.478;2022-12-28T04:27:46;6.60;99.90
12853;DHT22;6495;51.808;7.478;2022-12-28T04:30:33;6.70;99.90
12853;DHT22;6495;51.808;7.478;2022-12-28T04:33:20;6.70;99.90
12853;DHT22;6495;51.808;7.478;2022-12-28T04:36:10;6.70;99.90
12853;DHT22;6495;51.808;7.478;2022-12-28T04:38:58;6.70;99.90
12853;DHT22;6495;51.808;7.478;2022-12-28T04:41:46;6.70;99.90
12853;DHT22;6495;51.808;7.478;2022-12-28T04:44:33;6.70;99.90
12853;DHT22;6495;51.808;7.478;2022-12-28T04:47:20;6.70;99.90
12853;DHT22;6495;51.808;7.478;2022-12-28T04:50:07;6.70;99.90
12853;DHT22;6495;51.808;7.478;2022-12-28T04:52:54;6.70;99.90
12853;DHT22;6495;51.808;7.478;2022-12-28T04:55:41;6.70;99.90
12853;DHT22;6495;51.808;7.478;2022-12-28T04:58:29;6.80;99.90
12853;DHT22;6495;51.808;7.478;2022-12-28T05:01:18;6.80;99.90
12853;DHT22;6495;51.808;7.478;2022-12-28T05:04:05;6.80;99.90
12853;DHT22;6495;51.808;7.478;2022-12-28T05:06:52;6.80;99.90
12853;DHT22;6495;51.808;7.478;2022-12-28T05:09:40;6.80;99.90
12853;DHT22;6495;51.808;7.478;2022-12-28T05:12:27;6.80;99.90
12853;DHT22;6495;51.808;7.478;2022-12-28T05:15:15;6.80;99.90
12853;DHT22;6495;51.808;7.478;2022-12-28T05:18:02;6.80;99.90
12853;DHT22;6495;51.808;7.478;2022-12-28T05:20:49;6.80;99.90
12853;DHT22;6495;51.808;7.478;2022-12-28T05:23:36;6.90;99.90
12853;DHT22;6495;51.808;7.478;2022-12-28T05:26:25;6.90;99.90
12853;DHT22;6495;51.808;7.478;2022-12-28T05:29:14;6.90;99.90
12853;DHT22;6495;51.808;7.478;2022-12-28T05:32:02;6.90;99.90
12853;DHT22;6495;51.808;7.478;2022-12-28T05:34:50;6.90;99.90
12853;DHT22;6495;51.808;7.478;2022-12-28T05:37:37;6.90;99.90
12853;DHT22;6495;51.808;7.478;2022-12-28T05:40:24;6.90;99.90
12853;DHT22;6495;51.808;7.478;2022-12-28T05:43:10;6.90;99.90
12853;DHT22;6495;51.808;7.478;2022-12-28T05:45:59;6.90;99.90
12853;DHT22;6495;51.808;7.478;2022-12-28T05:48:50;6.90;99.90
12853;DHT22;6495;51.808;7.478;2022-12-28T05:51:37;6.90;99.90
12853;DHT22;6495;51.808;7.478;2022-12-28T05:54:24;6.90;99.90
12853;DHT22;6495;51.808;7.478;2022-12-28T05:57:11;6.90;99.90
12853;DHT22;6495;51.808;7.478;2022-12-28T05:59:57;6.90;99.90
12853;DHT22;6495;51.808;7.478;2022-12-28T06:02:44;6.90;99.90
12853;DHT22;6495;51.808;7.478;2022-12-28T06:05:33;6.90;99.90
12853;DHT22;6495;51.808;7.478;2022-12-28T06:08:20;7.00;99.90
12853;DHT22;6495;51.808;7.478;2022-12-28T06:11:09;7.00;99.90
12853;DHT22;6495;51.808;7.478;2022-12-28T06:13:57;7.00;99.90
12853;DHT22;6495;51.808;7.478;2022-12-28T06:16:45;7.00;99.90
12853;DHT22;6495;51.808;7.478;2022-12-28T06:19:32;7.00;99.90
12853;DHT22;6495;51.808;7.478;2022-12-28T06:22:20;7.00;99.90
12853;DHT22;6495;51.808;7.478;2022-12-28T06:25:07;7.00;99.90
12853;DHT22;6495;51.808;7.478;2022-12-28T06:27:54;7.10;99.90
12853;DHT22;6495;51.808;7.478;2022-12-28T06:30:41;7.00;99.90
12853;DHT22;6495;51.808;7.478;2022-12-28T06:33:37;7.10;99.90
12853;DHT22;6495;51.808;7.478;2022-12-28T06:36:26;7.10;99.90
12853;DHT22;6495;51.808;7.478;2022-12-28T06:39:16;7.10;99.90
12853;DHT22;6495;51.808;7.478;2022-12-28T06:42:03;7.10;99.90
12853;DHT22;6495;51.808;7.478;2022-12-28T06:44:50;7.10;99.90
12853;DHT22;6495;51.808;7.478;2022-12-28T06:47:37;7.10;99.90
12853;DHT22;6495;51.808;7.478;2022-12-28T06:50:24;7.10;99.90
12853;DHT22;6495;51.808;7.478;2022-12-28T06:53:11;7.10;99.90
12853;DHT22;6495;51.808;7.478;2022-12-28T06:56:00;7.10;99.90
12853;DHT22;6495;51.808;7.478;2022-12-28T06:58:50;7.10;99.90
12853;DHT22;6495;51.808;7.478;2022-12-28T07:01:44;7.10;99.90
12853;DHT22;6495;51.808;7.478;2022-12-28T07:04:31;7.10;99.90
12853;DHT22;6495;51.808;7.478;2022-12-28T07:07:18;7.10;99.90
12853;DHT22;6495;51.808;7.478;2022-12-28T07:10:06;7.20;99.90
12853;DHT22;6495;51.808;7.478;2022-12-28T07:12:54;7.20;99.90
12853;DHT22;6495;51.808;7.478;2022-12-28T07:15:41;7.20;99.90
12853;DHT22;6495;51.808;7.478;2022-12-28T07:18:28;7.20;99.90
12853;DHT22;6495;51.808;7.478;2022-12-28T07:21:17;7.20;99.90
12853;DHT22;6495;51.808;7.478;2022-12-28T07:24:06;7.20;99.90
12853;DHT22;6495;51.808;7.478;2022-12-28T07:26:53;7.20;99.90
12853;DHT22;6495;51.808;7.478;2022-12-28T07:29:41;7.20;99.90
12853;DHT22;6495;51.808;7.478;2022-12-28T07:32:28;7.20;99.90
12853;DHT22;6495;51.808;7.478;2022-12-28T07:35:15;7.20;99.90
12853;DHT22;6495;51.808;7.478;2022-12-28T07:38:02;7.30;99.90
12853;DHT22;6495;51.808;7.478;2022-12-28T07:40:48;7.30;99.90
12853;DHT22;6495;51.808;7.478;2022-12-28T07:43:36;7.30;99.90
12853;DHT22;6495;51.808;7.478;2022-12-28T07:46:25;7.30;99.90
12853;DHT22;6495;51.808;7.478;2022-12-28T07:49:13;7.30;99.90
12853;DHT22;6495;51.808;7.478;2022-12-28T07:52:00;7.30;99.90
12853;DHT22;6495;51.808;7.478;2022-12-28T07:54:47;7.30;99.90
12853;DHT22;6495;51.808;7.478;2022-12-28T07:57:34;7.40;99.90
12853;DHT22;6495;51.808;7.478;2022-12-28T08:00:21;7.40;99.90
12853;DHT22;6495;51.808;7.478;2022-12-28T08:03:09;7.40;99.90
12853;DHT22;6495;51.808;7.478;2022-12-28T08:06:01;7.40;99.90
12853;DHT22;6495;51.808;7.478;2022-12-28T08:08:50;7.40;99.90
12853;DHT22;6495;51.808;7.478;2022-12-28T08:11:41;7.40;99.90
12853;DHT22;6495;51.808;7.478;2022-12-28T08:14:29;7.50;99.90
12853;DHT22;6495;51.808;7.478;2022-12-28T08:17:16;7.50;99.90
12853;DHT22;6495;51.808;7.478;2022-12-28T08:20:07;7.50;99.90
12853;DHT22;6495;51.808;7.478;2022-12-28T08:22:54;7.50;99.90
12853;DHT22;6495;51.808;7.478;2022-12-28T08:25:41;7.60;99.90
12853;DHT22;6495;51.808;7.478;2022-12-28T08:28:28;7.60;99.90
12853;DHT22;6495;51.808;7.478;2022-12-28T08:31:17;7.60;99.90
12853;DHT22;6495;51.808;7.478;2022-12-28T08:34:06;7.70;99.90
12853;DHT22;6495;51.808;7.478;2022-12-28T08:36:55;7.70;99.90
12853;DHT22;6495;51.808;7.478;2022-12-28T08:39:42;7.70;99.90
12853;DHT22;6495;51.808;7.478;2022-12-28T08:42:29;7.70;99.90
12853;DHT22;6495;51.808;7.478;2022-12-28T08:45:16;7.70;99.90
12853;DHT22;6495;51.808;7.478;2022-12-28T08:48:04;7.80;99.90
12853;DHT22;6495;51.808;7.478;2022-12-28T08:50:51;7.80;99.90
12853;DHT22;6495;51.808;7.478;2022-12-28T08:53:40;7.80;99.90
12853;DHT22;6495;51.808;7.478;2022-12-28T08:56:28;7.80;99.90
12853;DHT22;6495;51.808;7.478;2022-12-28T08:59:18;7.80;99.90
12853;DHT22;6495;51.808;7.478;2022-12-28T09:02:05;7.90;99.90
12853;DHT22;6495;51.808;7.478;2022-12-28T09:04:52;7.90;99.90
12853;DHT22;6495;51.808;7.478;2022-12-28T09:07:39;7.90;99.90
12853;DHT22;6495;51.808;7.478;2022-12-28T09:10:27;7.90;99.90
12853;DHT22;6495;51.808;7.478;2022-12-28T09:13:14;7.90;99.90
12853;DHT22;6495;51.808;7.478;2022-12-28T09:16:03;8.00;99.90
12853;DHT22;6495;51.808;7.478;2022-12-28T09:18:53;8.00;99.90
12853;DHT22;6495;51.808;7.478;2022-12-28T09:21:41;8.00;99.90
12853;DHT22;6495;51.808;7.478;2022-12-28T09:24:29;8.00;99.90
12853;DHT22;6495;51.808;7.478;2022-12-28T09:27:17;8.00;99.90
12853;DHT22;6495;51.808;7.478;2022-12-28T09:30:05;8.10;99.90
12853;DHT22;6495;51.808;7.478;2022-12-28T09:32:53;8.10;99.90
12853;DHT22;6495;51.808;7.478;2022-12-28T09:36:01;8.10;99.90
12853;DHT22;6495;51.808;7.478;2022-12-28T09:38:48;8.10;99.90
12853;DHT22;6495;51.808;7.478;2022-12-28T09:41:41;8.10;99.90
12853;DHT22;6495;51.808;7.478;2022-12-28T09:44:47;8.20;99.90
12853;DHT22;6495;51.808;7.478;2022-12-28T09:47:43;8.20;99.90
12853;DHT22;6495;51.808;7.478;2022-12-28T09:50:33;8.20;99.90
12853;DHT22;6495;51.808;7.478;2022-12-28T09:53:26;8.20;99.90
12853;DHT22;6495;51.808;7.478;2022-12-28T09:56:22;8.20;99.90
12853;DHT22;6495;51.808;7.478;2022-12-28T09:59:16;8.20;99.90
12853;DHT22;6495;51.808;7.478;2022-12-28T10:02:18;8.30;99.90
12853;DHT22;6495;51.808;7.478;2022-12-28T10:05:11;8.30;99.90
12853;DHT22;6495;51.808;7.478;2022-12-28T10:07:59;8.30;99.90
12853;DHT22;6495;51.808;7.478;2022-12-28T10:10:47;8.30;99.90
12853;DHT22;6495;51.808;7.478;2022-12-28T10:13:36;8.30;99.90
12853;DHT22;6495;51.808;7.478;2022-12-28T10:16:40;8.30;99.90
12853;DHT22;6495;51.808;7.478;2022-12-28T10:19:34;8.30;99.90
12853;DHT22;6495;51.808;7.478;2022-12-28T10:22:21;8.40;99.90
12853;DHT22;6495;51.808;7.478;2022-12-28T10:25:15;8.40;99.90
12853;DHT22;6495;51.808;7.478;2022-12-28T10:28:06;8.40;99.90
12853;DHT22;6495;51.808;7.478;2022-12-28T10:31:04;8.40;99.90
12853;DHT22;6495;51.808;7.478;2022-12-28T10:33:52;8.40;99.90
12853;DHT22;6495;51.808;7.478;2022-12-28T10:36:41;8.40;99.90
12853;DHT22;6495;51.808;7.478;2022-12-28T10:39:28;8.50;99.90
12853;DHT22;6495;51.808;7.478;2022-12-28T10:42:20;8.50;99.90
12853;DHT22;6495;51.808;7.478;2022-12-28T10:45:16;8.50;99.90
12853;DHT22;6495;51.808;7.478;2022-12-28T10:48:08;8.50;99.90
12853;DHT22;6495;51.808;7.478;2022-12-28T10:51:09;8.50;99.90
12853;DHT22;6495;51.808;7.478;2022-12-28T10:53:59;8.60;99.90
12853;DHT22;6495;51.808;7.478;2022-12-28T10:56:47;8.60;99.90
12853;DHT22;6495;51.808;7.478;2022-12-28T10:59:34;8.60;99.90
12853;DHT22;6495;51.808;7.478;2022-12-28T11:02:26;8.60;99.90
12853;DHT22;6495;51.808;7.478;2022-12-28T11:05:19;8.70;99.90
12853;DHT22;6495;51.808;7.478;2022-12-28T11:08:12;8.70;99.90
12853;DHT22;6495;51.808;7.478;2022-12-28T11:11:01;8.70;99.90
12853;DHT22;6495;51.808;7.478;2022-12-28T11:13:51;8.70;99.90
12853;DHT22;6495;51.808;7.478;2022-12-28T11:16:42;8.80;99.90
12853;DHT22;6495;51.808;7.478;2022-12-28T11:19:29;8.80;99.90
12853;DHT22;6495;51.808;7.478;2022-12-28T11:22:20;8.80;99.90
12853;DHT22;6495;51.808;7.478;2022-12-28T11:25:13;8.80;99.90
12853;DHT22;6495;51.808;7.478;2022-12-28T11:28:11;8.80;99.90
12853;DHT22;6495;51.808;7.478;2022-12-28T11:31:00;8.90;99.90
12853;DHT22;6495;51.808;7.478;2022-12-28T11:33:53;8.90;99.90
12853;DHT22;6495;51.808;7.478;2022-12-28T11:36:43;8.90;99.90
12853;DHT22;6495;51.808;7.478;2022-12-28T11:39:40;8.90;99.90
12853;DHT22;6495;51.808;7.478;2022-12-28T11:42:53;8.90;99.90
12853;DHT22;6495;51.808;7.478;2022-12-28T11:45:52;8.90;99.90
12853;DHT22;6495;51.808;7.478;2022-12-28T11:48:55;9.00;99.90
12853;DHT22;6495;51.808;7.478;2022-12-28T11:51:43;9.00;99.90
12853;DHT22;6495;51.808;7.478;2022-12-28T11:54:37;9.00;99.90
12853;DHT22;6495;51.808;7.478;2022-12-28T11:57:36;9.00;99.90
12853;DHT22;6495;51.808;7.478;2022-12-28T12:00:46;9.10;99.90
12853;DHT22;6495;51.808;7.478;2022-12-28T12:04:16;9.10;99.90
12853;DHT22;6495;51.808;7.478;2022-12-28T12:07:46;9.10;99.90
12853;DHT22;6495;51.808;7.478;2022-12-28T12:10:39;9.10;99.90
12853;DHT22;6495;51.808;7.478;2022-12-28T12:13:47;9.20;99.90
12853;DHT22;6495;51.808;7.478;2022-12-28T12:16:45;9.20;99.90
12853;DHT22;6495;51.808;7.478;2022-12-28T12:19:37;9.20;99.90
12853;DHT22;6495;51.808;7.478;2022-12-28T12:22:29;9.20;99.90
12853;DHT22;6495;51.808;7.478;2022-12-28T12:25:22;9.20;99.90
12853;DHT22;6495;51.808;7.478;2022-12-28T12:28:20;9.20;99.90
12853;DHT22;6495;51.808;7.478;2022-12-28T12:31:23;9.20;99.90
12853;DHT22;6495;51.808;7.478;2022-12-28T12:34:17;9.30;99.90
12853;DHT22;6495;51.808;7.478;2022-12-28T12:37:26;9.20;99.90
12853;DHT22;6495;51.808;7.478;2022-12-28T12:43:57;9.20;99.90
12853;DHT22;6495;51.808;7.478;2022-12-28T12:47:10;9.20;99.90
12853;DHT22;6495;51.808;7.478;2022-12-28T12:50:15;9.30;99.90
12853;DHT22;6495;51.808;7.478;2022-12-28T12:53:21;9.20;99.90
12853;DHT22;6495;51.808;7.478;2022-12-28T12:56:27;9.20;99.90
12853;DHT22;6495;51.808;7.478;2022-12-28T12:59:36;9.20;99.90
12853;DHT22;6495;51.808;7.478;2022-12-28T13:02:51;9.20;99.90
12853;DHT22;6495;51.808;7.478;2022-12-28T13:05:51;9.20;99.90
12853;DHT22;6495;51.808;7.478;2022-12-28T13:08:46;9.20;99.90
12853;DHT22;6495;51.808;7.478;2022-12-28T13:11:36;9.20;99.90
12853;DHT22;6495;51.808;7.478;2022-12-28T13:14:24;9.20;99.90
12853;DHT22;6495;51.808;7.478;2022-12-28T13:17:16;9.10;99.90
12853;DHT22;6495;51.808;7.478;2022-12-28T13:20:13;9.10;99.90
12853;DHT22;6495;51.808;7.478;2022-12-28T13:23:11;9.10;99.90
12853;DHT22;6495;51.808;7.478;2022-12-28T13:26:02;9.10;99.90
12853;DHT22;6495;51.808;7.478;2022-12-28T13:28:52;9.10;99.90
12853;DHT22;6495;51.808;7.478;2022-12-28T13:31:43;9.10;99.90
12853;DHT22;6495;51.808;7.478;2022-12-28T13:34:33;9.10;99.90
12853;DHT22;6495;51.808;7.478;2022-12-28T13:37:22;9.00;99.90
12853;DHT22;6495;51.808;7.478;2022-12-28T13:40:10;9.00;99.90
12853;DHT22;6495;51.808;7.478;2022-12-28T13:43:26;9.10;99.90
12853;DHT22;6495;51.808;7.478;2022-12-28T13:46:29;9.10;99.90
12853;DHT22;6495;51.808;7.478;2022-12-28T13:49:17;9.10;99.90
12853;DHT22;6495;51.808;7.478;2022-12-28T13:52:11;9.10;99.90
12853;DHT22;6495;51.808;7.478;2022-12-28T13:55:03;9.10;99.90
12853;DHT22;6495;51.808;7.478;2022-12-28T13:57:56;9.10;99.90
12853;DHT22;6495;51.808;7.478;2022-12-28T14:00:50;9.10;99.90
12853;DHT22;6495;51.808;7.478;2022-12-28T14:03:39;9.10;99.90
12853;DHT22;6495;51.808;7.478;2022-12-28T14:06:31;9.20;99.90
12853;DHT22;6495;51.808;7.478;2022-12-28T14:09:20;9.10;99.90
12853;DHT22;6495;51.808;7.478;2022-12-28T14:12:07;9.20;99.90
12853;DHT22;6495;51.808;7.478;2022-12-28T14:14:55;9.20;99.90
12853;DHT22;6495;51.808;7.478;2022-12-28T14:17:45;9.10;99.90
12853;DHT22;6495;51.808;7.478;2022-12-28T14:20:45;9.10;99.90
12853;DHT22;6495;51.808;7.478;2022-12-28T14:23:34;9.10;99.90
12853;DHT22;6495;51.808;7.478;2022-12-28T14:26:21;9.10;99.90
12853;DHT22;6495;51.808;7.478;2022-12-28T14:29:12;9.00;99.90
12853;DHT22;6495;51.808;7.478;2022-12-28T14:32:11;9.10;99.90
12853;DHT22;6495;51.808;7.478;2022-12-28T14:35:03;9.10;99.90
12853;DHT22;6495;51.808;7.478;2022-12-28T14:37:53;9.00;99.90
12853;DHT22;6495;51.808;7.478;2022-12-28T14:40:41;9.00;99.90
12853;DHT22;6495;51.808;7.478;2022-12-28T14:43:29;9.00;99.90
12853;DHT22;6495;51.808;7.478;2022-12-28T14:46:29;9.00;99.90
12853;DHT22;6495;51.808;7.478;2022-12-28T14:49:32;9.00;99.90
12853;DHT22;6495;51.808;7.478;2022-12-28T14:52:42;8.90;99.90
12853;DHT22;6495;51.808;7.478;2022-12-28T14:55:32;8.90;99.90
12853;DHT22;6495;51.808;7.478;2022-12-28T14:58:25;8.90;99.90
12853;DHT22;6495;51.808;7.478;2022-12-28T15:01:16;8.90;99.90
12853;DHT22;6495;51.808;7.478;2022-12-28T15:04:05;8.90;99.90
12853;DHT22;6495;51.808;7.478;2022-12-28T15:06:52;8.90;99.90
12853;DHT22;6495;51.808;7.478;2022-12-28T15:09:40;8.90;99.90
12853;DHT22;6495;51.808;7.478;2022-12-28T15:12:27;8.80;99.90
12853;DHT22;6495;51.808;7.478;2022-12-28T15:15:14;8.80;99.90
12853;DHT22;6495;51.808;7.478;2022-12-28T15:18:02;8.80;99.90
12853;DHT22;6495;51.808;7.478;2022-12-28T15:20:50;8.80;99.90
12853;DHT22;6495;51.808;7.478;2022-12-28T15:23:37;8.80;99.90
12853;DHT22;6495;51.808;7.478;2022-12-28T15:26:25;8.80;99.90
12853;DHT22;6495;51.808;7.478;2022-12-28T15:29:12;8.80;99.90
12853;DHT22;6495;51.808;7.478;2022-12-28T15:32:16;8.70;99.90
12853;DHT22;6495;51.808;7.478;2022-12-28T15:35:03;8.70;99.90
12853;DHT22;6495;51.808;7.478;2022-12-28T15:37:51;8.70;99.90
12853;DHT22;6495;51.808;7.478;2022-12-28T15:40:38;8.80;99.90
12853;DHT22;6495;51.808;7.478;2022-12-28T15:43:27;8.80;99.90
12853;DHT22;6495;51.808;7.478;2022-12-28T15:46:13;8.80;99.90
12853;DHT22;6495;51.808;7.478;2022-12-28T15:49:02;8.80;99.90
12853;DHT22;6495;51.808;7.478;2022-12-28T15:51:50;8.70;99.90
12853;DHT22;6495;51.808;7.478;2022-12-28T15:54:39;8.80;99.90
12853;DHT22;6495;51.808;7.478;2022-12-28T15:57:31;8.70;99.90
12853;DHT22;6495;51.808;7.478;2022-12-28T16:00:19;8.70;99.90
12853;DHT22;6495;51.808;7.478;2022-12-28T16:03:09;8.70;99.90
12853;DHT22;6495;51.808;7.478;2022-12-28T16:05:57;8.70;99.90
12853;DHT22;6495;51.808;7.478;2022-12-28T16:08:44;8.70;99.90
12853;DHT22;6495;51.808;7.478;2022-12-28T16:11:31;8.70;99.90
12853;DHT22;6495;51.808;7.478;2022-12-28T16:14:19;8.70;99.90
12853;DHT22;6495;51.808;7.478;2022-12-28T16:17:07;8.70;99.90
12853;DHT22;6495;51.808;7.478;2022-12-28T16:19:54;8.70;99.90
12853;DHT22;6495;51.808;7.478;2022-12-28T16:22:41;8.70;99.90
12853;DHT22;6495;51.808;7.478;2022-12-28T16:25:27;8.70;99.90
12853;DHT22;6495;51.808;7.478;2022-12-28T16:28:14;8.70;99.90
12853;DHT22;6495;51.808;7.478;2022-12-28T16:31:01;8.70;99.90
12853;DHT22;6495;51.808;7.478;2022-12-28T16:33:53;8.70;99.90
12853;DHT22;6495;51.808;7.478;2022-12-28T16:36:40;8.70;99.90
12853;DHT22;6495;51.808;7.478;2022-12-28T16:39:28;8.70;99.90
12853;DHT22;6495;51.808;7.478;2022-12-28T16:42:15;8.70;99.90
12853;DHT22;6495;51.808;7.478;2022-12-28T16:45:02;8.70;99.90
12853;DHT22;6495;51.808;7.478;2022-12-28T16:47:50;8.70;99.90
12853;DHT22;6495;51.808;7.478;2022-12-28T16:50:38;8.70;99.90
12853;DHT22;6495;51.808;7.478;2022-12-28T16:53:25;8.70;99.90
12853;DHT22;6495;51.808;7.478;2022-12-28T16:56:13;8.70;99.90
12853;DHT22;6495;51.808;7.478;2022-12-28T16:59:00;8.70;99.90
12853;DHT22;6495;51.808;7.478;2022-12-28T17:01:47;8.70;99.90
12853;DHT22;6495;51.808;7.478;2022-12-28T17:04:35;8.70;99.90
12853;DHT22;6495;51.808;7.478;2022-12-28T17:07:23;8.70;99.90
12853;DHT22;6495;51.808;7.478;2022-12-28T17:10:10;8.80;99.90
12853;DHT22;6495;51.808;7.478;2022-12-28T17:13:04;8.80;99.90
12853;DHT22;6495;51.808;7.478;2022-12-28T17:15:51;8.80;99.90
12853;DHT22;6495;51.808;7.478;2022-12-28T17:18:49;8.80;99.90
12853;DHT22;6495;51.808;7.478;2022-12-28T17:21:35;8.80;99.90
12853;DHT22;6495;51.808;7.478;2022-12-28T17:24:32;8.80;99.90
12853;DHT22;6495;51.808;7.478;2022-12-28T17:27:18;8.80;99.90
12853;DHT22;6495;51.808;7.478;2022-12-28T17:30:06;8.80;99.90
12853;DHT22;6495;51.808;7.478;2022-12-28T17:32:53;8.80;99.90
12853;DHT22;6495;51.808;7.478;2022-12-28T17:35:41;8.80;99.90
12853;DHT22;6495;51.808;7.478;2022-12-28T17:38:27;8.80;99.90
12853;DHT22;6495;51.808;7.478;2022-12-28T17:41:21;8.90;99.90
12853;DHT22;6495;51.808;7.478;2022-12-28T17:44:09;8.80;99.90
12853;DHT22;6495;51.808;7.478;2022-12-28T17:46:56;8.90;99.90
12853;DHT22;6495;51.808;7.478;2022-12-28T17:49:43;8.90;99.90
12853;DHT22;6495;51.808;7.478;2022-12-28T17:52:30;8.90;99.90
12853;DHT22;6495;51.808;7.478;2022-12-28T17:55:17;8.80;99.90
12853;DHT22;6495;51.808;7.478;2022-12-28T17:58:07;8.90;99.90
12853;DHT22;6495;51.808;7.478;2022-12-28T18:00:58;8.90;99.90
12853;DHT22;6495;51.808;7.478;2022-12-28T18:03:45;8.80;99.90
12853;DHT22;6495;51.808;7.478;2022-12-28T18:06:32;8.80;99.90
12853;DHT22;6495;51.808;7.478;2022-12-28T18:09:18;8.80;99.90
12853;DHT22;6495;51.808;7.478;2022-12-28T18:12:12;8.80;99.90
12853;DHT22;6495;51.808;7.478;2022-12-28T18:15:02;8.80;99.90
12853;DHT22;6495;51.808;7.478;2022-12-28T18:17:49;8.80;99.90
12853;DHT22;6495;51.808;7.478;2022-12-28T18:20:36;8.80;99.90
12853;DHT22;6495;51.808;7.478;2022-12-28T18:23:22;8.80;99.90
12853;DHT22;6495;51.808;7.478;2022-12-28T18:26:12;8.80;99.90
12853;DHT22;6495;51.808;7.478;2022-12-28T18:29:01;8.80;99.90
12853;DHT22;6495;51.808;7.478;2022-12-28T18:31:49;8.80;99.90
12853;DHT22;6495;51.808;7.478;2022-12-28T18:34:36;8.70;99.90
12853;DHT22;6495;51.808;7.478;2022-12-28T18:37:23;8.70;99.90
12853;DHT22;6495;51.808;7.478;2022-12-28T18:40:10;8.70;99.90
12853;DHT22;6495;51.808;7.478;2022-12-28T18:42:57;8.70;99.90
12853;DHT22;6495;51.808;7.478;2022-12-28T18:45:50;8.70;99.90
12853;DHT22;6495;51.808;7.478;2022-12-28T18:48:40;8.70;99.90
12853;DHT22;6495;51.808;7.478;2022-12-28T18:51:27;8.70;99.90
12853;DHT22;6495;51.808;7.478;2022-12-28T18:54:17;8.70;99.90
12853;DHT22;6495;51.808;7.478;2022-12-28T18:57:04;8.70;99.90
12853;DHT22;6495;51.808;7.478;2022-12-28T18:59:51;8.70;99.90